logo
Search for airport 
image banner adimage banner adimage banner ad
image banner ad

SWBH - Fazenda Sao Jose Do Rancho Grande

Located in Aquidauana, Brazil

ICAO - SWBH, IATA -

Data provided by Airmate  

General information

Coordinates: S20°9'22" W55°32'44"
Elevation is 557 feet MSL.
Magnetic variation is -17.71339804° East
View others Airports in Tocatins

Operational data

Special qualification required
Current time UTC:
Current local time:
Weather at : - ( 0 km )
METAR: USDA 220419Z 06004MPS 0750 0400W R04/0750D FG VV002 01/01 Q1002 R04/CLRD60 NOSIG RMK QBB080 QFE750/1001
View NOTAMs / SUP AIP / TFR affecting this airport [VIEW]
Communications frequencies: [VIEW]

Runways:

RWY identifierQFULength (ft)Width (ft)SurfaceLDA (ft)
03262566GRASS
21262566GRASS

Airport contact information

Address: Aquidauana Brazil

Satellite view of SWBH